Time;durP1;ratioP1;P1;durP2;ratioP2;P2;SDS_P1;SDS_P2;PMS_P1;PMS_P2;Temp;Humidity;BMP_temperature;BMP_pressure;BME280_temperature;BME280_humidity;BME280_pressure;Samples;Min_cycle;Max_cycle;Signal;HPM_P1;HPM_P2
2023/01/28 00:00:18;;;;;;;7.00;4.82;;;3.60;99.90;;;;;;5013826;28;20054;-85
2023/01/28 00:02:50;;;;;;;6.32;4.22;;;3.60;99.90;;;;;;4985374;28;20517;-86
2023/01/28 00:05:33;;;;;;;6.70;4.93;;;3.60;99.90;;;;;;5000134;28;20037;-85
2023/01/28 00:08:06;;;;;;;6.50;4.78;;;3.60;99.90;;;;;;4986764;28;20050;-86
2023/01/28 00:10:38;;;;;;;7.22;4.95;;;3.60;99.90;;;;;;4989556;28;20034;-86
2023/01/28 00:13:37;;;;;;;6.55;4.70;;;3.60;99.90;;;;;;4998091;28;20125;-86
2023/01/28 00:16:11;;;;;;;6.32;4.53;;;3.60;99.90;;;;;;4993818;28;20097;-86
2023/01/28 00:19:09;;;;;;;5.90;4.13;;;3.60;99.90;;;;;;4986899;28;20040;-85
2023/01/28 00:21:37;;;;;;;5.90;4.30;;;3.60;99.90;;;;;;5014590;28;20406;-86
2023/01/28 00:24:11;;;;;;;6.43;4.32;;;3.60;99.90;;;;;;5021881;28;20032;-85
2023/01/28 00:26:42;;;;;;;6.75;4.57;;;3.60;99.90;;;;;;5021459;28;20045;-86
2023/01/28 00:29:16;;;;;;;5.70;3.90;;;3.60;99.90;;;;;;5023094;28;20025;-85
2023/01/28 00:31:45;;;;;;;5.82;3.88;;;3.60;99.90;;;;;;4991354;28;20042;-86
2023/01/28 00:34:15;;;;;;;6.57;3.97;;;3.60;99.90;;;;;;5005195;28;20080;-86
2023/01/28 00:36:44;;;;;;;5.95;4.32;;;3.60;99.90;;;;;;5004103;28;20149;-86
2023/01/28 00:39:13;;;;;;;5.03;3.70;;;3.60;99.90;;;;;;5005329;28;20030;-86
2023/01/28 00:41:39;;;;;;;5.75;3.80;;;3.60;99.90;;;;;;5023928;28;20076;-86
2023/01/28 00:44:17;;;;;;;6.18;3.97;;;3.60;99.90;;;;;;5001037;28;20491;-85
2023/01/28 00:46:48;;;;;;;5.47;4.03;;;3.60;99.90;;;;;;5003875;28;20141;-86
2023/01/28 00:49:16;;;;;;;6.00;4.18;;;3.60;99.90;;;;;;4989268;28;20474;-86
2023/01/28 00:51:52;;;;;;;6.25;3.67;;;3.60;99.90;;;;;;5004068;28;20465;-86
2023/01/28 00:54:21;;;;;;;5.95;4.00;;;3.60;99.90;;;;;;5003232;28;20046;-86
2023/01/28 00:56:48;;;;;;;6.40;4.13;;;3.60;99.90;;;;;;5002889;28;20073;-86
2023/01/28 00:59:27;;;;;;;6.10;4.43;;;3.60;99.90;;;;;;5004857;28;20101;-87
2023/01/28 01:01:53;;;;;;;7.05;4.78;;;3.60;99.90;;;;;;4992243;28;20195;-85
2023/01/28 01:04:25;;;;;;;6.30;4.40;;;3.60;99.90;;;;;;5000766;28;20469;-85
2023/01/28 01:06:54;;;;;;;7.93;5.00;;;3.60;99.90;;;;;;4990918;28;20065;-86
2023/01/28 01:09:21;;;;;;;6.47;4.55;;;3.60;99.90;;;;;;4996356;28;20438;-86
2023/01/28 01:11:51;;;;;;;7.40;5.35;;;3.60;99.90;;;;;;4984509;28;20042;-86
2023/01/28 01:14:21;;;;;;;8.27;5.82;;;3.50;99.90;;;;;;5001398;28;20109;-85
2023/01/28 01:16:46;;;;;;;8.63;5.75;;;3.50;99.90;;;;;;4982444;28;20542;-86
2023/01/28 01:19:12;;;;;;;8.77;5.78;;;3.50;99.90;;;;;;4983584;28;20044;-85
2023/01/28 01:21:40;;;;;;;8.45;5.32;;;3.50;99.90;;;;;;5001077;28;20053;-87
2023/01/28 01:24:06;;;;;;;8.35;6.15;;;3.50;99.90;;;;;;4966389;28;20058;-85
2023/01/28 01:26:31;;;;;;;9.85;6.45;;;3.50;99.90;;;;;;4979607;28;20406;-85
2023/01/28 01:29:00;;;;;;;9.00;6.50;;;3.50;99.90;;;;;;4981989;28;20045;-85
2023/01/28 01:31:27;;;;;;;8.75;5.97;;;3.50;99.90;;;;;;4998560;28;20038;-87
2023/01/28 01:33:53;;;;;;;8.80;5.88;;;3.50;99.90;;;;;;4959186;28;20106;-84
2023/01/28 01:36:20;;;;;;;9.55;7.10;;;3.40;99.90;;;;;;4956852;28;20035;-85
2023/01/28 01:38:53;;;;;;;8.18;6.05;;;3.40;99.90;;;;;;4975053;28;20049;-85
2023/01/28 01:41:49;;;;;;;8.45;5.43;;;3.40;99.90;;;;;;4957100;28;20047;-85
2023/01/28 01:44:52;;;;;;;7.70;5.30;;;3.40;99.90;;;;;;4978721;28;20038;-85
2023/01/28 01:47:20;;;;;;;8.63;6.30;;;3.40;99.90;;;;;;4973005;28;20031;-84
2023/01/28 01:49:46;;;;;;;7.63;5.35;;;3.40;99.90;;;;;;4975857;28;20046;-84
2023/01/28 01:52:18;;;;;;;8.00;5.40;;;3.40;99.90;;;;;;4956657;28;20554;-84
2023/01/28 01:54:50;;;;;;;8.20;5.68;;;3.30;99.90;;;;;;4974978;28;20026;-85
2023/01/28 01:57:26;;;;;;;8.48;6.13;;;3.40;99.90;;;;;;4963903;28;20031;-84
2023/01/28 01:59:53;;;;;;;7.53;5.55;;;3.30;99.90;;;;;;4978799;28;20430;-84
2023/01/28 02:02:27;;;;;;;8.13;5.78;;;3.30;99.90;;;;;;4951720;28;20043;-84
2023/01/28 02:04:54;;;;;;;9.60;5.97;;;3.40;99.90;;;;;;4976818;28;20039;-85
2023/01/28 02:07:21;;;;;;;7.00;5.18;;;3.40;99.90;;;;;;4987527;28;20054;-85
2023/01/28 02:09:47;;;;;;;7.57;5.25;;;3.30;99.90;;;;;;5014857;28;20150;-86
2023/01/28 02:12:34;;;;;;;6.63;4.72;;;3.30;99.90;;;;;;4997347;28;20537;-85
2023/01/28 02:15:18;;;;;;;7.60;5.25;;;3.30;99.90;;;;;;4998393;28;20030;-85
2023/01/28 02:17:44;;;;;;;5.93;4.13;;;3.30;99.90;;;;;;4998067;28;20438;-86
2023/01/28 02:20:14;;;;;;;6.40;4.45;;;3.30;99.90;;;;;;4997921;28;20088;-86
2023/01/28 02:23:14;;;;;;;7.15;4.82;;;3.30;99.90;;;;;;5016072;28;20030;-86
2023/01/28 02:26:06;;;;;;;7.38;4.70;;;3.30;99.90;;;;;;4993593;28;20030;-86
2023/01/28 02:28:44;;;;;;;6.53;4.45;;;3.30;99.90;;;;;;5012685;28;20037;-85
2023/01/28 02:31:32;;;;;;;6.55;4.25;;;3.30;99.90;;;;;;4998919;28;20029;-85
2023/01/28 02:34:35;;;;;;;7.53;5.32;;;3.30;99.90;;;;;;4998744;28;20038;-85
2023/01/28 02:37:08;;;;;;;7.68;5.65;;;3.30;99.90;;;;;;5015211;28;20394;-86
2023/01/28 02:39:52;;;;;;;8.05;5.57;;;3.30;99.90;;;;;;4999279;28;20026;-85
2023/01/28 02:42:28;;;;;;;7.82;5.50;;;3.20;99.90;;;;;;5013452;28;20034;-83
2023/01/28 02:44:55;;;;;;;8.63;6.13;;;3.20;99.90;;;;;;5039485;28;20052;-84
2023/01/28 02:50:18;;;;;;;9.55;6.63;;;3.20;99.90;;;;;;4998782;28;20040;-85
2023/01/28 02:53:42;;;;;;;9.18;6.13;;;3.20;99.90;;;;;;4999718;28;20061;-86
2023/01/28 02:56:31;;;;;;;8.82;6.00;;;3.10;99.90;;;;;;5000554;28;20478;-86
2023/01/28 02:59:31;;;;;;;11.25;6.93;;;3.10;99.90;;;;;;4989185;28;20046;-85
2023/01/28 03:02:39;;;;;;;10.38;7.20;;;3.10;99.90;;;;;;4996260;28;20045;-86
2023/01/28 03:05:27;;;;;;;11.63;7.50;;;3.10;99.90;;;;;;4996134;28;20030;-86
2023/01/28 03:07:53;;;;;;;10.07;6.43;;;3.00;99.90;;;;;;4987601;28;20050;-86
2023/01/28 03:10:24;;;;;;;11.10;7.07;;;3.00;99.90;;;;;;4995913;28;20038;-86
2023/01/28 03:38:47;;;;;;;10.75;7.20;;;3.00;99.90;;;;;;5016124;28;20449;-85
2023/01/28 03:41:20;;;;;;;11.43;7.32;;;2.90;99.90;;;;;;4998385;28;20471;-85
2023/01/28 03:43:47;;;;;;;11.10;7.35;;;3.00;99.90;;;;;;5016196;28;20034;-86
2023/01/28 03:46:13;;;;;;;11.40;7.85;;;2.90;99.90;;;;;;4998419;28;20061;-86
2023/01/28 03:48:39;;;;;;;12.25;8.27;;;2.90;99.90;;;;;;4998276;28;20030;-86
2023/01/28 03:51:05;;;;;;;12.45;7.78;;;2.90;99.90;;;;;;4978914;28;20483;-87
2023/01/28 03:53:30;;;;;;;10.13;6.80;;;2.90;99.90;;;;;;4995159;28;20065;-85
2023/01/28 03:55:59;;;;;;;10.23;7.22;;;2.90;99.90;;;;;;4997959;28;20030;-85
2023/01/28 03:58:25;;;;;;;9.32;6.45;;;2.90;99.90;;;;;;4998363;28;20100;-86
2023/01/28 04:00:52;;;;;;;9.07;6.30;;;3.00;99.90;;;;;;4997506;28;20038;-85
2023/01/28 04:03:20;;;;;;;10.07;6.90;;;2.90;99.90;;;;;;4997538;28;20041;-85
2023/01/28 04:06:08;;;;;;;10.68;7.45;;;3.00;99.90;;;;;;5015600;28;20045;-85
2023/01/28 04:08:34;;;;;;;12.02;8.05;;;2.90;99.90;;;;;;5015079;28;20112;-85
2023/01/28 04:11:14;;;;;;;10.63;7.75;;;2.90;99.90;;;;;;4997589;28;20065;-84
2023/01/28 04:13:43;;;;;;;9.95;7.30;;;2.90;99.90;;;;;;4997788;28;20080;-85
2023/01/28 04:16:10;;;;;;;10.52;7.47;;;2.90;99.90;;;;;;4997673;28;20038;-86
2023/01/28 04:18:36;;;;;;;10.07;7.07;;;2.90;99.90;;;;;;4997426;28;20036;-85
2023/01/28 04:21:02;;;;;;;9.93;7.43;;;2.90;99.90;;;;;;5013993;28;20407;-85
2023/01/28 04:23:28;;;;;;;9.73;6.90;;;2.90;99.90;;;;;;4996647;28;20505;-85
2023/01/28 04:25:55;;;;;;;10.75;7.22;;;2.90;99.90;;;;;;4997109;28;20044;-84
2023/01/28 04:28:27;;;;;;;10.05;6.95;;;2.90;99.90;;;;;;4997600;28;20478;-85
2023/01/28 04:30:53;;;;;;;11.35;7.85;;;2.90;99.90;;;;;;5013330;28;20087;-85
2023/01/28 04:33:18;;;;;;;12.07;7.95;;;2.90;99.90;;;;;;4996554;28;20433;-85
2023/01/28 04:35:44;;;;;;;11.57;7.47;;;2.90;99.90;;;;;;4997002;28;20550;-85
2023/01/28 04:38:10;;;;;;;9.68;6.93;;;2.90;99.90;;;;;;4997225;28;20049;-85
2023/01/28 04:40:36;;;;;;;10.55;7.80;;;2.80;99.90;;;;;;4996875;28;20050;-85
2023/01/28 04:43:04;;;;;;;9.98;7.03;;;2.80;99.90;;;;;;4997039;28;20497;-85
2023/01/28 04:45:31;;;;;;;10.35;7.18;;;2.80;99.90;;;;;;4996906;28;20398;-85
2023/01/28 04:47:57;;;;;;;9.10;6.78;;;2.80;99.90;;;;;;4996849;28;20181;-86
2023/01/28 04:50:23;;;;;;;9.15;6.47;;;2.80;99.90;;;;;;4996251;28;20129;-85
2023/01/28 04:52:51;;;;;;;8.98;6.45;;;2.80;99.90;;;;;;4996418;28;20125;-86
2023/01/28 04:55:17;;;;;;;9.80;6.68;;;2.80;99.90;;;;;;4996658;28;20504;-85
2023/01/28 04:57:42;;;;;;;9.40;6.50;;;2.80;99.90;;;;;;5013994;28;20033;-86
2023/01/28 05:00:09;;;;;;;8.60;6.10;;;2.80;99.90;;;;;;5014093;28;20030;-86
2023/01/28 05:02:34;;;;;;;9.43;6.35;;;2.80;99.90;;;;;;4996544;28;20468;-86
2023/01/28 05:05:03;;;;;;;10.40;7.45;;;2.80;99.90;;;;;;4996614;28;20053;-86
2023/01/28 05:07:29;;;;;;;11.32;7.68;;;2.80;99.90;;;;;;4996197;28;20050;-86
2023/01/28 05:09:55;;;;;;;10.40;7.57;;;2.70;99.90;;;;;;5013812;28;20038;-86
2023/01/28 05:12:21;;;;;;;10.23;7.43;;;2.70;99.90;;;;;;5013903;28;20065;-86
2023/01/28 05:14:47;;;;;;;10.90;7.60;;;2.70;99.90;;;;;;5012092;28;20040;-85
2023/01/28 05:17:13;;;;;;;10.50;7.25;;;2.70;99.90;;;;;;5012894;28;20204;-86
2023/01/28 05:19:38;;;;;;;9.30;6.72;;;2.70;99.90;;;;;;5012631;28;20037;-86
2023/01/28 05:22:04;;;;;;;9.98;7.13;;;2.70;99.90;;;;;;5012960;28;20088;-86
2023/01/28 05:24:29;;;;;;;10.57;7.25;;;2.70;99.90;;;;;;4996417;28;20038;-86
2023/01/28 05:26:55;;;;;;;9.57;6.97;;;2.70;99.90;;;;;;5013620;28;20034;-86
2023/01/28 05:29:21;;;;;;;8.55;6.30;;;2.70;99.90;;;;;;5013764;28;20121;-87
2023/01/28 05:31:47;;;;;;;9.60;6.60;;;2.60;99.90;;;;;;5012685;28;20501;-86
2023/01/28 05:34:13;;;;;;;9.13;6.57;;;2.70;99.90;;;;;;5029156;28;20034;-86
2023/01/28 05:36:40;;;;;;;12.43;7.18;;;2.60;99.90;;;;;;5012556;28;20099;-86
2023/01/28 05:39:06;;;;;;;9.70;6.65;;;2.60;99.90;;;;;;5012280;28;20033;-85
2023/01/28 05:41:32;;;;;;;11.20;7.43;;;2.60;99.90;;;;;;4996062;28;20057;-86
2023/01/28 05:43:58;;;;;;;10.52;6.57;;;2.60;99.90;;;;;;5012392;28;20046;-86
2023/01/28 05:46:24;;;;;;;10.23;6.32;;;2.60;99.90;;;;;;5012386;28;20030;-85
2023/01/28 05:48:50;;;;;;;8.98;6.03;;;2.60;99.90;;;;;;5012562;28;20385;-86
2023/01/28 05:51:18;;;;;;;8.35;6.03;;;2.60;99.90;;;;;;5006977;28;20128;-86
2023/01/28 05:53:44;;;;;;;10.50;6.72;;;2.60;99.90;;;;;;4996187;28;20129;-86
2023/01/28 05:56:09;;;;;;;9.60;6.55;;;2.60;99.90;;;;;;5012383;28;20521;-86
2023/01/28 05:58:35;;;;;;;9.98;6.38;;;2.60;99.90;;;;;;5012280;28;20053;-87
2023/01/28 06:01:03;;;;;;;10.05;6.85;;;2.60;99.90;;;;;;5011968;28;20437;-86
2023/01/28 06:03:31;;;;;;;10.98;7.20;;;2.50;99.90;;;;;;5012343;28;20033;-86
2023/01/28 06:05:57;;;;;;;10.38;6.72;;;2.50;99.90;;;;;;5011239;28;20241;-85
2023/01/28 06:08:22;;;;;;;9.52;6.55;;;2.50;99.90;;;;;;5013265;28;20475;-86
2023/01/28 06:10:58;;;;;;;9.25;6.63;;;2.50;99.90;;;;;;5012299;28;20042;-86
2023/01/28 06:13:25;;;;;;;10.50;7.00;;;2.60;99.90;;;;;;5011165;28;20109;-86
2023/01/28 06:15:51;;;;;;;10.45;6.65;;;2.50;99.90;;;;;;5012927;28;20093;-86
2023/01/28 06:18:18;;;;;;;10.90;6.90;;;2.50;99.90;;;;;;5012628;28;20434;-86
2023/01/28 06:20:47;;;;;;;11.90;7.95;;;2.50;99.90;;;;;;5012315;28;20064;-86
2023/01/28 06:23:14;;;;;;;11.20;7.45;;;2.50;99.90;;;;;;5012158;28;20026;-86
2023/01/28 06:25:43;;;;;;;11.45;7.68;;;2.50;99.90;;;;;;5028471;28;20034;-86
2023/01/28 06:28:08;;;;;;;12.30;7.65;;;2.50;99.90;;;;;;5011519;28;20057;-86
2023/01/28 06:30:38;;;;;;;11.50;7.47;;;2.50;99.90;;;;;;5011626;28;20086;-86
2023/01/28 06:33:03;;;;;;;12.75;7.90;;;2.40;99.90;;;;;;4995587;28;20041;-87
2023/01/28 06:35:29;;;;;;;11.43;7.32;;;2.40;99.90;;;;;;5012123;28;20041;-85
2023/01/28 06:37:57;;;;;;;11.63;8.10;;;2.40;99.90;;;;;;5011815;28;20030;-85
2023/01/28 06:40:25;;;;;;;12.18;8.15;;;2.50;99.90;;;;;;4995910;28;20049;-86
2023/01/28 06:42:58;;;;;;;11.68;7.57;;;2.40;99.90;;;;;;5013156;28;20520;-85
2023/01/28 06:45:27;;;;;;;11.00;7.38;;;2.40;99.90;;;;;;5016617;28;20478;-86
2023/01/28 06:47:55;;;;;;;11.48;7.72;;;2.40;99.90;;;;;;4999063;28;20083;-86
2023/01/28 06:50:22;;;;;;;11.27;7.00;;;2.40;99.90;;;;;;5015282;28;20124;-86
2023/01/28 06:52:47;;;;;;;13.07;8.05;;;2.30;99.90;;;;;;4999086;28;20038;-86
2023/01/28 06:55:13;;;;;;;11.73;7.63;;;2.30;99.90;;;;;;5015059;28;20036;-86
2023/01/28 06:57:40;;;;;;;13.30;8.00;;;2.30;99.90;;;;;;5014549;28;20044;-85
2023/01/28 07:00:15;;;;;;;12.57;7.82;;;2.30;99.90;;;;;;5031532;28;20041;-85
2023/01/28 07:02:44;;;;;;;11.18;7.40;;;2.20;99.90;;;;;;5014940;28;20100;-86
2023/01/28 07:05:10;;;;;;;10.50;6.93;;;2.20;99.90;;;;;;4981329;28;20584;-86
2023/01/28 07:07:36;;;;;;;11.18;7.05;;;2.20;99.90;;;;;;5013555;28;20133;-86
2023/01/28 07:10:02;;;;;;;10.93;7.55;;;2.20;99.90;;;;;;4997161;28;20042;-85
2023/01/28 07:12:28;;;;;;;12.30;8.07;;;2.20;99.90;;;;;;5015078;28;20045;-86
2023/01/28 07:14:55;;;;;;;12.65;8.75;;;2.20;99.90;;;;;;5014967;28;20382;-85
2023/01/28 07:17:23;;;;;;;10.85;7.68;;;2.20;99.90;;;;;;5020206;28;20046;-85
2023/01/28 07:19:49;;;;;;;12.73;8.73;;;2.20;99.90;;;;;;5017126;28;20492;-85
2023/01/28 07:22:17;;;;;;;12.80;8.88;;;2.20;99.90;;;;;;5032957;28;20041;-86
2023/01/28 07:24:52;;;;;;;12.43;8.40;;;2.20;99.90;;;;;;5033320;28;20044;-85
2023/01/28 07:27:18;;;;;;;12.85;8.85;;;2.20;99.90;;;;;;5034658;28;20363;-86
2023/01/28 07:29:44;;;;;;;12.77;8.75;;;2.10;99.90;;;;;;5033423;28;20128;-86
2023/01/28 07:32:12;;;;;;;12.30;8.77;;;2.10;99.90;;;;;;5028351;28;20107;-86
2023/01/28 07:34:41;;;;;;;11.60;7.68;;;2.20;99.90;;;;;;5048346;28;20037;-85
2023/01/28 07:37:08;;;;;;;11.32;7.90;;;2.20;99.90;;;;;;5037964;28;20084;-83
2023/01/28 07:39:36;;;;;;;11.45;7.57;;;2.20;99.90;;;;;;5056062;28;20033;-85
2023/01/28 07:42:03;;;;;;;11.85;7.95;;;2.20;99.90;;;;;;5054901;28;20109;-85
2023/01/28 07:44:29;;;;;;;11.63;7.82;;;2.30;99.90;;;;;;5023630;28;20417;-86
2023/01/28 07:46:56;;;;;;;10.88;7.78;;;2.20;99.90;;;;;;5018482;28;20072;-87
2023/01/28 07:49:26;;;;;;;11.02;7.75;;;2.30;99.90;;;;;;5022089;28;20030;-87
2023/01/28 07:51:58;;;;;;;11.45;7.80;;;2.30;99.90;;;;;;5014522;28;20033;-86
2023/01/28 07:54:23;;;;;;;12.73;8.88;;;2.30;99.90;;;;;;5013527;28;20394;-86
2023/01/28 07:56:51;;;;;;;10.85;7.60;;;2.30;99.90;;;;;;5018550;28;20037;-86
2023/01/28 07:59:18;;;;;;;12.82;8.48;;;2.30;99.90;;;;;;5036001;28;20042;-87
2023/01/28 08:01:46;;;;;;;11.35;7.65;;;2.40;99.90;;;;;;5033767;28;20041;-85
2023/01/28 08:04:12;;;;;;;11.32;7.50;;;2.40;99.90;;;;;;5033763;28;20382;-86
2023/01/28 08:06:40;;;;;;;11.82;7.70;;;2.40;99.90;;;;;;5033444;28;20061;-86
2023/01/28 08:09:21;;;;;;;11.85;7.97;;;2.40;99.90;;;;;;4998961;28;20500;-86
2023/01/28 08:11:56;;;;;;;12.20;8.30;;;2.40;99.90;;;;;;5015199;28;20077;-85
2023/01/28 08:14:48;;;;;;;12.68;8.23;;;2.40;99.90;;;;;;5031588;28;20037;-86
2023/01/28 08:17:17;;;;;;;11.65;7.95;;;2.40;99.90;;;;;;5016094;28;20041;-86
2023/01/28 08:19:50;;;;;;;12.57;8.40;;;2.40;99.90;;;;;;5015673;28;20034;-85
2023/01/28 08:22:19;;;;;;;;;;;2.40;99.90;;;;;;5018267;28;20049;-85
2023/01/28 08:24:46;;;;;;;10.98;7.47;;;2.30;99.90;;;;;;5017664;28;20350;-85
2023/01/28 08:29:59;;;;;;;12.43;8.18;;;2.30;99.90;;;;;;5020227;28;20125;-86
2023/01/28 08:32:26;;;;;;;12.77;8.10;;;2.30;99.90;;;;;;5017570;28;20120;-86
2023/01/28 08:34:57;;;;;;;10.13;6.97;;;2.30;99.90;;;;;;5016830;28;20049;-85
2023/01/28 08:37:26;;;;;;;9.90;6.80;;;2.30;99.90;;;;;;5017587;28;20123;-87
2023/01/28 08:40:17;;;;;;;10.07;7.03;;;2.30;99.90;;;;;;5016900;28;20133;-86
2023/01/28 08:42:48;;;;;;;11.65;7.85;;;2.30;99.90;;;;;;5032933;28;20516;-85
2023/01/28 08:45:14;;;;;;;10.27;7.60;;;2.30;99.90;;;;;;5000784;28;20029;-84
2023/01/28 08:47:52;;;;;;;11.95;8.50;;;2.30;99.90;;;;;;5016940;28;20124;-85
2023/01/28 08:50:26;;;;;;;10.70;7.80;;;2.30;99.90;;;;;;5000806;28;20051;-87
2023/01/28 08:53:18;;;;;;;11.32;7.82;;;2.30;99.90;;;;;;5000796;28;20033;-86
2023/01/28 08:55:47;;;;;;;9.80;7.22;;;2.30;99.90;;;;;;5016069;28;20083;-86
2023/01/28 08:58:19;;;;;;;10.38;7.30;;;2.30;99.90;;;;;;5034453;28;20038;-86
2023/01/28 09:00:46;;;;;;;9.80;6.85;;;2.30;99.90;;;;;;5017007;28;20042;-86
2023/01/28 09:03:12;;;;;;;9.73;6.90;;;2.30;99.90;;;;;;5000287;28;20054;-85
2023/01/28 09:05:42;;;;;;;9.82;6.80;;;2.40;99.90;;;;;;5016014;28;20038;-85
2023/01/28 09:08:13;;;;;;;8.50;6.05;;;2.40;99.90;;;;;;5033611;28;20061;-86
2023/01/28 09:10:41;;;;;;;9.18;6.63;;;2.40;99.90;;;;;;5033468;28;20037;-86
2023/01/28 09:13:09;;;;;;;9.68;7.07;;;2.40;99.90;;;;;;5016273;28;20069;-86
2023/01/28 09:15:37;;;;;;;8.98;6.28;;;2.40;99.90;;;;;;5032953;28;20484;-85
2023/01/28 09:18:03;;;;;;;8.88;6.32;;;2.40;99.90;;;;;;4999762;28;20030;-86
2023/01/28 09:20:32;;;;;;;8.70;6.10;;;2.40;99.90;;;;;;5033479;28;20116;-87
2023/01/28 09:23:10;;;;;;;7.72;5.72;;;2.50;99.90;;;;;;5016069;28;20057;-86
2023/01/28 09:25:36;;;;;;;8.43;6.05;;;2.50;99.90;;;;;;5015928;28;20484;-86
2023/01/28 09:28:16;;;;;;;9.07;6.63;;;2.50;99.90;;;;;;5016294;28;20061;-86
2023/01/28 09:30:45;;;;;;;9.88;7.40;;;2.60;99.90;;;;;;5016672;28;20041;-85
2023/01/28 09:33:15;;;;;;;9.43;6.35;;;2.60;99.90;;;;;;4983549;28;20034;-85
2023/01/28 09:36:04;;;;;;;8.02;6.28;;;2.60;99.90;;;;;;5032309;28;20119;-86
2023/01/28 09:38:35;;;;;;;8.70;6.22;;;2.60;99.90;;;;;;5002200;28;20127;-85
2023/01/28 09:41:12;;;;;;;10.30;7.28;;;2.70;99.90;;;;;;5016240;28;20422;-86
2023/01/28 09:44:07;;;;;;;9.43;6.93;;;2.60;99.90;;;;;;5032105;28;20037;-85
2023/01/28 09:46:44;;;;;;;10.82;7.63;;;2.60;99.90;;;;;;5030942;28;20123;-86
2023/01/28 09:49:53;;;;;;;9.80;6.65;;;2.70;99.90;;;;;;5033507;28;20032;-85
2023/01/28 09:52:25;;;;;;;9.60;7.32;;;2.70;99.90;;;;;;5015695;28;20064;-85
2023/01/28 09:55:00;;;;;;;8.93;6.53;;;2.70;99.90;;;;;;5032115;28;20041;-85
2023/01/28 09:57:36;;;;;;;8.60;6.15;;;2.80;99.90;;;;;;5033233;28;20034;-85
2023/01/28 10:00:39;;;;;;;8.57;6.57;;;2.90;99.90;;;;;;5015491;28;20029;-84
2023/01/28 10:03:28;;;;;;;10.45;6.50;;;3.00;99.90;;;;;;5015413;28;20121;-85
2023/01/28 10:06:43;;;;;;;9.10;6.50;;;3.00;99.90;;;;;;5015483;28;20036;-85
2023/01/28 10:09:40;;;;;;;9.13;6.35;;;3.10;99.90;;;;;;4991213;28;20057;-85
2023/01/28 10:12:49;;;;;;;8.35;6.38;;;3.10;99.90;;;;;;4974402;28;20043;-85
2023/01/28 10:15:45;;;;;;;9.68;6.60;;;3.20;99.90;;;;;;4975177;28;20438;-86
2023/01/28 10:18:13;;;;;;;8.18;6.13;;;3.30;99.90;;;;;;4983394;28;20580;-86
2023/01/28 10:20:57;;;;;;;8.38;6.03;;;3.40;99.90;;;;;;5019244;28;20127;-86
2023/01/28 10:23:39;;;;;;;8.05;6.10;;;3.40;99.90;;;;;;5019398;28;20085;-86
2023/01/28 10:26:40;;;;;;;8.38;5.93;;;3.50;99.90;;;;;;5035539;28;20465;-86
2023/01/28 10:29:19;;;;;;;9.23;6.45;;;3.50;99.90;;;;;;5001505;28;20427;-85
2023/01/28 10:32:05;;;;;;;8.77;6.07;;;3.60;99.90;;;;;;5037145;28;20072;-86
2023/01/28 10:34:34;;;;;;;7.22;5.18;;;3.70;99.90;;;;;;5002357;28;20073;-86
2023/01/28 10:37:20;;;;;;;7.40;5.53;;;3.70;99.90;;;;;;5018784;28;20034;-84
2023/01/28 10:39:57;;;;;;;;;;;;;;;;;;;;;
2023/01/28 10:42:32;;;;;;;7.90;5.80;;;3.80;99.90;;;;;;5020098;28;20038;-84
2023/01/28 10:45:26;;;;;;;7.70;5.47;;;3.80;99.90;;;;;;5018465;28;20038;-85
2023/01/28 10:48:20;;;;;;;8.25;6.05;;;3.90;99.90;;;;;;4999959;28;20048;-85
2023/01/28 10:50:53;;;;;;;;;;;3.90;99.90;;;;;;5019217;28;20068;-85
2023/01/28 10:53:39;;;;;;;8.75;4.95;;;3.90;99.90;;;;;;5018437;28;19995;-85
2023/01/28 10:56:43;;;;;;;9.30;6.00;;;4.10;99.90;;;;;;5001946;28;20099;-86
2023/01/28 10:59:40;;;;;;;7.13;5.20;;;4.10;99.90;;;;;;4997772;28;20388;-86
2023/01/28 11:02:31;;;;;;;7.10;5.25;;;4.30;99.90;;;;;;5034671;28;20477;-86
2023/01/28 11:05:27;;;;;;;7.15;4.57;;;4.40;99.90;;;;;;5035949;28;20029;-86
2023/01/28 11:08:19;;;;;;;6.40;4.10;;;4.70;99.90;;;;;;5030835;28;20109;-86
2023/01/28 11:10:51;;;;;;;6.43;4.18;;;5.00;99.90;;;;;;5013600;28;20370;-86
2023/01/28 11:13:26;;;;;;;6.32;4.47;;;5.50;99.90;;;;;;5027910;28;20030;-86
2023/01/28 11:16:16;;;;;;;6.75;4.95;;;5.80;99.90;;;;;;5031687;28;20038;-85
2023/01/28 11:19:13;;;;;;;7.60;4.82;;;6.20;99.90;;;;;;5014887;28;20030;-86
2023/01/28 11:21:47;;;;;;;6.00;4.75;;;6.40;99.90;;;;;;5014719;28;20038;-86
2023/01/28 11:24:19;;;;;;;6.25;4.82;;;6.70;99.90;;;;;;5015000;28;20409;-86
2023/01/28 11:26:54;;;;;;;6.13;4.45;;;6.80;99.90;;;;;;5014711;28;20109;-86
2023/01/28 11:29:30;;;;;;;5.57;4.10;;;6.70;99.90;;;;;;5015955;28;20033;-86
2023/01/28 11:32:12;;;;;;;;;;;;;;;;;;;;;
2023/01/28 11:35:00;;;;;;;6.27;4.67;;;7.70;99.90;;;;;;5014434;28;20048;-86
2023/01/28 11:37:30;;;;;;;5.55;4.28;;;8.70;99.90;;;;;;5014076;28;20544;-86
2023/01/28 11:40:15;;;;;;;5.35;3.95;;;10.10;99.90;;;;;;5015569;28;20038;-86
2023/01/28 11:42:48;;;;;;;5.63;3.90;;;11.30;99.90;;;;;;4993254;28;20030;-86
2023/01/28 11:45:24;;;;;;;5.75;4.68;;;12.10;99.90;;;;;;5025544;28;20049;-88
2023/01/28 11:48:28;;;;;;;5.60;4.05;;;12.40;99.90;;;;;;5003356;28;20096;-85
2023/01/28 11:51:36;;;;;;;5.65;4.10;;;13.00;99.90;;;;;;5032610;28;20036;-86
2023/01/28 11:54:29;;;;;;;4.82;4.20;;;13.50;99.90;;;;;;4997388;28;20115;-86
2023/01/28 11:57:34;;;;;;;4.80;4.07;;;14.10;99.90;;;;;;5001546;28;20034;-85
2023/01/28 12:00:32;;;;;;;5.25;4.47;;;14.50;99.90;;;;;;4998852;28;20111;-85
2023/01/28 12:03:31;;;;;;;5.35;4.72;;;14.70;99.90;;;;;;5022164;28;20042;-86
2023/01/28 12:06:10;;;;;;;4.38;3.78;;;14.90;99.90;;;;;;5021822;28;20042;-87
2023/01/28 12:09:30;;;;;;;4.75;3.90;;;15.20;99.90;;;;;;5008024;28;20477;-86
2023/01/28 12:12:22;;;;;;;5.00;4.35;;;15.60;99.90;;;;;;4961152;28;20045;-85
2023/01/28 12:15:04;;;;;;;5.22;3.70;;;15.60;99.90;;;;;;5022134;28;20152;-88
2023/01/28 12:18:04;;;;;;;4.30;3.60;;;15.70;99.90;;;;;;5004831;28;20101;-87
2023/01/28 12:21:34;;;;;;;3.85;3.45;;;16.10;99.90;;;;;;5020677;28;20124;-87
2023/01/28 12:24:14;;;;;;;3.78;2.92;;;15.70;99.90;;;;;;4945796;28;20530;-87
2023/01/28 12:27:18;;;;;;;4.80;3.33;;;15.30;99.90;;;;;;4975527;28;20026;-87
2023/01/28 12:30:38;;;;;;;5.03;4.20;;;14.10;99.90;;;;;;5020316;28;20030;-87
2023/01/28 12:33:44;;;;;;;5.28;4.55;;;12.40;99.90;;;;;;4950616;29;20515;-88
2023/01/28 12:36:54;;;;;;;7.68;5.97;;;11.20;99.90;;;;;;4952913;29;20027;-86
2023/01/28 12:39:48;;;;;;;7.93;6.10;;;10.20;99.90;;;;;;4953236;28;20488;-87
2023/01/28 12:42:37;;;;;;;6.63;5.22;;;9.40;99.90;;;;;;4994186;28;20506;-86
2023/01/28 12:45:28;;;;;;;6.38;5.47;;;8.80;99.90;;;;;;4997578;28;20502;-87
2023/01/28 12:48:26;;;;;;;5.82;5.13;;;8.40;99.90;;;;;;4972434;28;20034;-86
2023/01/28 12:51:17;;;;;;;5.80;4.85;;;8.20;99.90;;;;;;4974691;28;20497;-87
2023/01/28 12:54:08;;;;;;;6.65;5.45;;;8.40;99.90;;;;;;5006503;28;20038;-87
2023/01/28 12:56:41;;;;;;;5.47;4.55;;;8.50;99.90;;;;;;5004021;28;20414;-87
2023/01/28 12:59:25;;;;;;;7.40;5.65;;;8.40;99.90;;;;;;4986161;28;20058;-86
2023/01/28 13:02:12;;;;;;;;;;;8.10;99.90;;;;;;5002669;28;20422;-87
2023/01/28 13:05:06;;;;;;;7.07;5.20;;;7.80;99.90;;;;;;4971580;28;19979;-86
2023/01/28 13:08:15;;;;;;;5.60;4.60;;;7.60;99.90;;;;;;5007886;28;20046;-85
2023/01/28 13:10:47;;;;;;;7.00;5.50;;;7.40;99.90;;;;;;4994149;28;20042;-86
2023/01/28 13:13:34;;;;;;;6.50;5.15;;;7.30;99.90;;;;;;5011892;28;20030;-86
2023/01/28 13:16:02;;;;;;;8.27;5.55;;;7.30;99.90;;;;;;4995745;28;20051;-86
2023/01/28 13:18:53;;;;;;;6.65;5.10;;;7.50;99.90;;;;;;4977525;28;20053;-87
2023/01/28 13:21:27;;;;;;;7.47;6.05;;;7.60;99.90;;;;;;5007598;28;20038;-85
2023/01/28 13:24:12;;;;;;;9.40;6.78;;;7.70;99.90;;;;;;5008605;28;20092;-86
2023/01/28 13:26:56;;;;;;;9.07;6.82;;;7.70;99.90;;;;;;5005742;28;20042;-85
2023/01/28 13:29:32;;;;;;;8.00;6.13;;;7.50;99.90;;;;;;4996488;28;20128;-86
2023/01/28 13:32:02;;;;;;;9.50;7.45;;;7.50;99.90;;;;;;4983697;28;20095;-86
2023/01/28 13:34:37;;;;;;;8.52;6.95;;;8.00;99.90;;;;;;4993667;28;20132;-86
2023/01/28 13:37:13;;;;;;;9.35;6.88;;;9.10;99.90;;;;;;4994313;28;20386;-85
2023/01/28 13:39:54;;;;;;;9.40;8.32;;;9.90;99.90;;;;;;5008388;28;20498;-86
2023/01/28 13:42:28;;;;;;;9.98;8.40;;;10.60;99.90;;;;;;4994011;28;20050;-86
2023/01/28 13:45:16;;;;;;;10.60;7.65;;;11.00;99.90;;;;;;4993824;28;20054;-85
2023/01/28 13:48:11;;;;;;;8.48;7.07;;;11.20;99.90;;;;;;4994402;28;20033;-86
2023/01/28 13:50:51;;;;;;;8.52;6.45;;;11.40;99.90;;;;;;5012580;28;20042;-86
2023/01/28 13:53:55;;;;;;;8.48;7.40;;;11.50;99.90;;;;;;4997043;28;20038;-85
2023/01/28 13:56:29;;;;;;;7.15;6.15;;;11.40;99.90;;;;;;4999233;28;20042;-85
2023/01/28 13:59:32;;;;;;;8.80;6.10;;;11.40;99.90;;;;;;5017893;28;20406;-86
2023/01/28 14:02:30;;;;;;;7.63;5.95;;;11.00;99.90;;;;;;5008393;28;20413;-85
2023/01/28 14:05:35;;;;;;;7.93;5.78;;;10.00;99.90;;;;;;5004765;28;20033;-86
2023/01/28 14:08:50;;;;;;;8.32;6.53;;;8.90;99.90;;;;;;5000681;28;20049;-85
2023/01/28 14:12:04;;;;;;;7.20;5.60;;;7.90;99.90;;;;;;4955234;28;20066;-85
2023/01/28 14:15:18;;;;;;;6.97;5.50;;;7.30;99.90;;;;;;4964154;28;20410;-86